sensor_id;sensor_type;location;lat;lon;timestamp;P1;durP1;ratioP1;P2;durP2;ratioP2
60368;SDS011;46208;44.634;10.492;2023-03-12T00:01:52;11.77;;;5.70;;
60368;SDS011;46208;44.634;10.492;2023-03-12T00:04:55;10.55;;;5.03;;
60368;SDS011;46208;44.634;10.492;2023-03-12T00:07:58;7.75;;;3.63;;
60368;SDS011;46208;44.634;10.492;2023-03-12T00:11:06;6.20;;;3.03;;
60368;SDS011;46208;44.634;10.492;2023-03-12T00:14:09;7.80;;;5.70;;
60368;SDS011;46208;44.634;10.492;2023-03-12T00:17:13;10.77;;;6.53;;
60368;SDS011;46208;44.634;10.492;2023-03-12T00:20:16;8.98;;;4.45;;
60368;SDS011;46208;44.634;10.492;2023-03-12T00:23:19;9.35;;;5.05;;
60368;SDS011;46208;44.634;10.492;2023-03-12T00:26:23;6.28;;;4.85;;
60368;SDS011;46208;44.634;10.492;2023-03-12T00:29:26;8.00;;;4.38;;
60368;SDS011;46208;44.634;10.492;2023-03-12T00:32:31;7.95;;;4.05;;
60368;SDS011;46208;44.634;10.492;2023-03-12T00:35:36;12.48;;;5.03;;
60368;SDS011;46208;44.634;10.492;2023-03-12T00:38:40;10.43;;;4.20;;
60368;SDS011;46208;44.634;10.492;2023-03-12T00:41:43;6.95;;;3.80;;
60368;SDS011;46208;44.634;10.492;2023-03-12T00:44:46;5.25;;;3.03;;
60368;SDS011;46208;44.634;10.492;2023-03-12T00:47:49;8.15;;;4.55;;
60368;SDS011;46208;44.634;10.492;2023-03-12T00:50:53;5.85;;;3.83;;
60368;SDS011;46208;44.634;10.492;2023-03-12T00:53:56;6.90;;;3.33;;
60368;SDS011;46208;44.634;10.492;2023-03-12T00:57:01;7.40;;;3.53;;
60368;SDS011;46208;44.634;10.492;2023-03-12T01:00:05;7.65;;;3.65;;
60368;SDS011;46208;44.634;10.492;2023-03-12T01:03:12;9.03;;;4.63;;
60368;SDS011;46208;44.634;10.492;2023-03-12T01:06:15;6.95;;;4.25;;
60368;SDS011;46208;44.634;10.492;2023-03-12T01:09:19;7.03;;;4.80;;
60368;SDS011;46208;44.634;10.492;2023-03-12T01:12:23;8.35;;;5.55;;
60368;SDS011;46208;44.634;10.492;2023-03-12T01:15:27;6.18;;;3.70;;
60368;SDS011;46208;44.634;10.492;2023-03-12T01:18:30;8.52;;;4.78;;
60368;SDS011;46208;44.634;10.492;2023-03-12T01:21:34;7.43;;;4.43;;
60368;SDS011;46208;44.634;10.492;2023-03-12T01:24:37;5.95;;;3.85;;
60368;SDS011;46208;44.634;10.492;2023-03-12T01:27:40;5.78;;;4.57;;
60368;SDS011;46208;44.634;10.492;2023-03-12T01:30:44;5.63;;;3.38;;
60368;SDS011;46208;44.634;10.492;2023-03-12T01:33:48;10.55;;;4.53;;
60368;SDS011;46208;44.634;10.492;2023-03-12T01:36:52;6.20;;;4.15;;
60368;SDS011;46208;44.634;10.492;2023-03-12T01:39:55;5.68;;;3.78;;
60368;SDS011;46208;44.634;10.492;2023-03-12T01:43:10;7.13;;;3.65;;
60368;SDS011;46208;44.634;10.492;2023-03-12T01:49:28;4.35;;;3.35;;
60368;SDS011;46208;44.634;10.492;2023-03-12T01:52:34;7.28;;;4.15;;
60368;SDS011;46208;44.634;10.492;2023-03-12T01:55:39;5.30;;;4.40;;
60368;SDS011;46208;44.634;10.492;2023-03-12T01:58:44;5.47;;;3.42;;
60368;SDS011;46208;44.634;10.492;2023-03-12T02:01:49;7.18;;;4.13;;
60368;SDS011;46208;44.634;10.492;2023-03-12T02:05:07;8.90;;;4.63;;
60368;SDS011;46208;44.634;10.492;2023-03-12T02:08:14;6.47;;;3.45;;
60368;SDS011;46208;44.634;10.492;2023-03-12T02:11:18;6.07;;;3.60;;
60368;SDS011;46208;44.634;10.492;2023-03-12T02:14:21;5.88;;;3.30;;
60368;SDS011;46208;44.634;10.492;2023-03-12T02:17:24;5.60;;;4.03;;
60368;SDS011;46208;44.634;10.492;2023-03-12T02:20:42;11.23;;;4.55;;
60368;SDS011;46208;44.634;10.492;2023-03-12T02:23:55;3.00;;;2.42;;
60368;SDS011;46208;44.634;10.492;2023-03-12T02:27:00;4.88;;;3.13;;
60368;SDS011;46208;44.634;10.492;2023-03-12T02:30:04;5.35;;;2.55;;
60368;SDS011;46208;44.634;10.492;2023-03-12T02:33:07;5.53;;;2.65;;
60368;SDS011;46208;44.634;10.492;2023-03-12T02:36:11;9.98;;;3.63;;
60368;SDS011;46208;44.634;10.492;2023-03-12T02:39:15;3.05;;;2.75;;
60368;SDS011;46208;44.634;10.492;2023-03-12T02:42:19;3.55;;;2.10;;
60368;SDS011;46208;44.634;10.492;2023-03-12T02:45:23;6.28;;;2.78;;
60368;SDS011;46208;44.634;10.492;2023-03-12T02:48:26;6.57;;;2.25;;
60368;SDS011;46208;44.634;10.492;2023-03-12T02:51:30;6.65;;;3.47;;
60368;SDS011;46208;44.634;10.492;2023-03-12T02:54:33;7.80;;;2.83;;
60368;SDS011;46208;44.634;10.492;2023-03-12T02:57:37;2.85;;;1.42;;
60368;SDS011;46208;44.634;10.492;2023-03-12T03:00:43;4.78;;;2.33;;
60368;SDS011;46208;44.634;10.492;2023-03-12T03:03:47;2.05;;;1.65;;
60368;SDS011;46208;44.634;10.492;2023-03-12T03:06:50;2.92;;;2.38;;
60368;SDS011;46208;44.634;10.492;2023-03-12T03:09:54;2.92;;;2.42;;
60368;SDS011;46208;44.634;10.492;2023-03-12T03:12:57;4.28;;;2.97;;
60368;SDS011;46208;44.634;10.492;2023-03-12T03:16:01;3.80;;;3.10;;
60368;SDS011;46208;44.634;10.492;2023-03-12T03:19:05;8.27;;;2.88;;
60368;SDS011;46208;44.634;10.492;2023-03-12T03:22:09;2.55;;;1.88;;
60368;SDS011;46208;44.634;10.492;2023-03-12T03:25:12;3.58;;;2.83;;
60368;SDS011;46208;44.634;10.492;2023-03-12T03:28:16;5.15;;;2.03;;
60368;SDS011;46208;44.634;10.492;2023-03-12T03:31:19;3.47;;;1.75;;
60368;SDS011;46208;44.634;10.492;2023-03-12T03:34:23;4.95;;;2.33;;
60368;SDS011;46208;44.634;10.492;2023-03-12T03:37:27;2.45;;;1.73;;
60368;SDS011;46208;44.634;10.492;2023-03-12T03:40:30;4.80;;;1.70;;
60368;SDS011;46208;44.634;10.492;2023-03-12T03:43:34;3.70;;;2.13;;
60368;SDS011;46208;44.634;10.492;2023-03-12T03:46:41;3.45;;;2.38;;
60368;SDS011;46208;44.634;10.492;2023-03-12T03:49:47;2.33;;;2.03;;
60368;SDS011;46208;44.634;10.492;2023-03-12T03:52:50;2.40;;;1.75;;
60368;SDS011;46208;44.634;10.492;2023-03-12T03:55:54;3.15;;;1.60;;
60368;SDS011;46208;44.634;10.492;2023-03-12T03:58:57;3.80;;;2.60;;
60368;SDS011;46208;44.634;10.492;2023-03-12T04:02:02;3.10;;;2.53;;
60368;SDS011;46208;44.634;10.492;2023-03-12T04:05:08;2.50;;;2.30;;
60368;SDS011;46208;44.634;10.492;2023-03-12T04:08:12;5.18;;;2.10;;
60368;SDS011;46208;44.634;10.492;2023-03-12T04:11:18;3.75;;;2.05;;
60368;SDS011;46208;44.634;10.492;2023-03-12T04:14:22;4.15;;;2.97;;
60368;SDS011;46208;44.634;10.492;2023-03-12T04:17:26;5.00;;;1.73;;
60368;SDS011;46208;44.634;10.492;2023-03-12T04:20:30;6.00;;;2.63;;
60368;SDS011;46208;44.634;10.492;2023-03-12T04:23:33;3.65;;;2.72;;
60368;SDS011;46208;44.634;10.492;2023-03-12T04:26:37;2.78;;;2.13;;
60368;SDS011;46208;44.634;10.492;2023-03-12T04:29:42;5.15;;;2.30;;
60368;SDS011;46208;44.634;10.492;2023-03-12T04:32:45;5.10;;;2.50;;
60368;SDS011;46208;44.634;10.492;2023-03-12T04:35:50;7.43;;;3.55;;
60368;SDS011;46208;44.634;10.492;2023-03-12T04:38:54;5.32;;;3.70;;
60368;SDS011;46208;44.634;10.492;2023-03-12T04:42:03;6.43;;;3.40;;
60368;SDS011;46208;44.634;10.492;2023-03-12T04:45:09;6.30;;;3.40;;
60368;SDS011;46208;44.634;10.492;2023-03-12T04:51:19;4.10;;;2.60;;
60368;SDS011;46208;44.634;10.492;2023-03-12T04:54:22;5.50;;;3.75;;
60368;SDS011;46208;44.634;10.492;2023-03-12T04:57:27;3.67;;;2.35;;
60368;SDS011;46208;44.634;10.492;2023-03-12T05:00:30;6.60;;;2.40;;
60368;SDS011;46208;44.634;10.492;2023-03-12T05:03:34;3.67;;;2.85;;
60368;SDS011;46208;44.634;10.492;2023-03-12T05:06:38;4.63;;;2.22;;
60368;SDS011;46208;44.634;10.492;2023-03-12T05:09:41;6.68;;;4.32;;
60368;SDS011;46208;44.634;10.492;2023-03-12T05:12:46;4.32;;;2.75;;
60368;SDS011;46208;44.634;10.492;2023-03-12T05:16:10;6.32;;;3.22;;
60368;SDS011;46208;44.634;10.492;2023-03-12T05:19:13;5.40;;;3.05;;
60368;SDS011;46208;44.634;10.492;2023-03-12T05:22:18;5.93;;;3.22;;
60368;SDS011;46208;44.634;10.492;2023-03-12T05:25:21;4.00;;;2.55;;
60368;SDS011;46208;44.634;10.492;2023-03-12T05:28:41;3.05;;;1.92;;
60368;SDS011;46208;44.634;10.492;2023-03-12T05:31:44;7.18;;;3.00;;
60368;SDS011;46208;44.634;10.492;2023-03-12T05:34:48;9.52;;;5.22;;
60368;SDS011;46208;44.634;10.492;2023-03-12T05:37:51;4.65;;;2.50;;
60368;SDS011;46208;44.634;10.492;2023-03-12T05:40:56;3.15;;;2.45;;
60368;SDS011;46208;44.634;10.492;2023-03-12T05:44:01;4.03;;;2.55;;
60368;SDS011;46208;44.634;10.492;2023-03-12T05:47:06;5.50;;;2.38;;
60368;SDS011;46208;44.634;10.492;2023-03-12T05:50:10;6.88;;;4.03;;
60368;SDS011;46208;44.634;10.492;2023-03-12T05:53:13;5.70;;;3.63;;
60368;SDS011;46208;44.634;10.492;2023-03-12T05:56:18;4.18;;;3.45;;
60368;SDS011;46208;44.634;10.492;2023-03-12T05:59:21;6.70;;;3.58;;
60368;SDS011;46208;44.634;10.492;2023-03-12T06:02:25;4.68;;;2.35;;
60368;SDS011;46208;44.634;10.492;2023-03-12T06:05:30;4.72;;;3.03;;
60368;SDS011;46208;44.634;10.492;2023-03-12T06:08:34;7.57;;;3.63;;
60368;SDS011;46208;44.634;10.492;2023-03-12T06:11:37;8.20;;;3.83;;
60368;SDS011;46208;44.634;10.492;2023-03-12T06:14:41;7.13;;;2.65;;
60368;SDS011;46208;44.634;10.492;2023-03-12T06:17:44;4.97;;;3.90;;
60368;SDS011;46208;44.634;10.492;2023-03-12T06:20:48;4.50;;;2.97;;
60368;SDS011;46208;44.634;10.492;2023-03-12T06:23:51;8.60;;;3.00;;
60368;SDS011;46208;44.634;10.492;2023-03-12T06:27:03;3.17;;;2.92;;
60368;SDS011;46208;44.634;10.492;2023-03-12T06:30:07;5.35;;;4.63;;
60368;SDS011;46208;44.634;10.492;2023-03-12T06:33:10;4.70;;;3.13;;
60368;SDS011;46208;44.634;10.492;2023-03-12T06:36:13;8.10;;;3.42;;
60368;SDS011;46208;44.634;10.492;2023-03-12T06:39:16;6.13;;;3.38;;
60368;SDS011;46208;44.634;10.492;2023-03-12T06:45:43;3.40;;;2.63;;
60368;SDS011;46208;44.634;10.492;2023-03-12T06:48:46;5.97;;;2.60;;
60368;SDS011;46208;44.634;10.492;2023-03-12T06:51:50;6.82;;;2.55;;
60368;SDS011;46208;44.634;10.492;2023-03-12T06:54:53;5.35;;;3.13;;
60368;SDS011;46208;44.634;10.492;2023-03-12T06:57:56;2.80;;;2.20;;
60368;SDS011;46208;44.634;10.492;2023-03-12T07:01:00;3.75;;;2.92;;
60368;SDS011;46208;44.634;10.492;2023-03-12T07:04:03;5.68;;;3.67;;
60368;SDS011;46208;44.634;10.492;2023-03-12T07:07:07;6.60;;;2.47;;
60368;SDS011;46208;44.634;10.492;2023-03-12T07:10:11;3.58;;;2.60;;
60368;SDS011;46208;44.634;10.492;2023-03-12T07:13:14;2.83;;;2.15;;
60368;SDS011;46208;44.634;10.492;2023-03-12T07:16:18;4.03;;;2.70;;
60368;SDS011;46208;44.634;10.492;2023-03-12T07:19:22;4.72;;;2.63;;
60368;SDS011;46208;44.634;10.492;2023-03-12T07:22:25;3.88;;;2.65;;
60368;SDS011;46208;44.634;10.492;2023-03-12T07:25:28;4.18;;;2.53;;
60368;SDS011;46208;44.634;10.492;2023-03-12T07:28:31;10.52;;;3.10;;
60368;SDS011;46208;44.634;10.492;2023-03-12T07:31:35;3.40;;;2.13;;
60368;SDS011;46208;44.634;10.492;2023-03-12T07:34:38;3.65;;;2.60;;
60368;SDS011;46208;44.634;10.492;2023-03-12T07:37:41;8.95;;;3.50;;
60368;SDS011;46208;44.634;10.492;2023-03-12T07:40:48;4.55;;;3.38;;
60368;SDS011;46208;44.634;10.492;2023-03-12T07:43:52;3.05;;;2.72;;
60368;SDS011;46208;44.634;10.492;2023-03-12T07:46:55;3.00;;;2.45;;
60368;SDS011;46208;44.634;10.492;2023-03-12T07:49:58;4.70;;;2.97;;
60368;SDS011;46208;44.634;10.492;2023-03-12T07:53:03;5.15;;;3.30;;
60368;SDS011;46208;44.634;10.492;2023-03-12T07:56:07;3.08;;;2.38;;
60368;SDS011;46208;44.634;10.492;2023-03-12T07:59:10;7.07;;;3.42;;
60368;SDS011;46208;44.634;10.492;2023-03-12T08:02:13;4.55;;;3.05;;
60368;SDS011;46208;44.634;10.492;2023-03-12T08:05:16;2.40;;;2.20;;
60368;SDS011;46208;44.634;10.492;2023-03-12T08:08:19;5.10;;;3.17;;
60368;SDS011;46208;44.634;10.492;2023-03-12T08:11:23;4.97;;;2.45;;
60368;SDS011;46208;44.634;10.492;2023-03-12T08:14:26;3.67;;;3.38;;
60368;SDS011;46208;44.634;10.492;2023-03-12T08:17:33;4.25;;;2.40;;
60368;SDS011;46208;44.634;10.492;2023-03-12T08:20:36;2.67;;;2.45;;
60368;SDS011;46208;44.634;10.492;2023-03-12T08:23:39;7.32;;;3.78;;
60368;SDS011;46208;44.634;10.492;2023-03-12T08:26:42;5.18;;;2.00;;
60368;SDS011;46208;44.634;10.492;2023-03-12T08:29:45;3.28;;;2.28;;
60368;SDS011;46208;44.634;10.492;2023-03-12T08:32:49;5.00;;;2.70;;
60368;SDS011;46208;44.634;10.492;2023-03-12T08:35:52;4.85;;;3.55;;
60368;SDS011;46208;44.634;10.492;2023-03-12T08:38:55;6.75;;;2.70;;
60368;SDS011;46208;44.634;10.492;2023-03-12T08:41:59;6.00;;;3.15;;
60368;SDS011;46208;44.634;10.492;2023-03-12T08:45:03;5.82;;;4.00;;
60368;SDS011;46208;44.634;10.492;2023-03-12T08:48:06;6.18;;;2.28;;
60368;SDS011;46208;44.634;10.492;2023-03-12T08:51:09;5.75;;;3.00;;
60368;SDS011;46208;44.634;10.492;2023-03-12T08:54:13;2.50;;;2.00;;
60368;SDS011;46208;44.634;10.492;2023-03-12T08:57:16;3.47;;;3.17;;
60368;SDS011;46208;44.634;10.492;2023-03-12T09:00:19;5.55;;;4.30;;
60368;SDS011;46208;44.634;10.492;2023-03-12T09:03:24;5.47;;;3.50;;
60368;SDS011;46208;44.634;10.492;2023-03-12T09:06:28;7.32;;;1.80;;
60368;SDS011;46208;44.634;10.492;2023-03-12T09:09:31;8.45;;;3.65;;
60368;SDS011;46208;44.634;10.492;2023-03-12T09:12:35;7.45;;;4.47;;
60368;SDS011;46208;44.634;10.492;2023-03-12T09:15:38;9.02;;;3.67;;
60368;SDS011;46208;44.634;10.492;2023-03-12T09:18:41;7.22;;;4.05;;
60368;SDS011;46208;44.634;10.492;2023-03-12T09:21:45;4.00;;;3.13;;
60368;SDS011;46208;44.634;10.492;2023-03-12T09:24:48;4.43;;;3.03;;
60368;SDS011;46208;44.634;10.492;2023-03-12T09:27:51;5.60;;;3.33;;
60368;SDS011;46208;44.634;10.492;2023-03-12T09:30:55;6.15;;;3.70;;
60368;SDS011;46208;44.634;10.492;2023-03-12T09:33:58;4.60;;;2.53;;
60368;SDS011;46208;44.634;10.492;2023-03-12T09:37:01;3.60;;;3.22;;
60368;SDS011;46208;44.634;10.492;2023-03-12T09:40:05;4.60;;;2.90;;
60368;SDS011;46208;44.634;10.492;2023-03-12T09:43:12;3.25;;;2.95;;
60368;SDS011;46208;44.634;10.492;2023-03-12T09:46:24;3.50;;;2.15;;
60368;SDS011;46208;44.634;10.492;2023-03-12T09:50:03;3.35;;;1.73;;
60368;SDS011;46208;44.634;10.492;2023-03-12T09:53:03;4.20;;;2.63;;
60368;SDS011;46208;44.634;10.492;2023-03-12T09:56:10;3.83;;;2.55;;
60368;SDS011;46208;44.634;10.492;2023-03-12T09:59:15;4.35;;;2.67;;
60368;SDS011;46208;44.634;10.492;2023-03-12T10:02:34;3.90;;;2.25;;
60368;SDS011;46208;44.634;10.492;2023-03-12T10:16:16;3.10;;;2.65;;
60368;SDS011;46208;44.634;10.492;2023-03-12T10:25:41;3.42;;;2.45;;
60368;SDS011;46208;44.634;10.492;2023-03-12T10:28:48;5.53;;;1.63;;
60368;SDS011;46208;44.634;10.492;2023-03-12T10:32:04;2.70;;;1.60;;
60368;SDS011;46208;44.634;10.492;2023-03-12T10:35:12;3.70;;;1.77;;
60368;SDS011;46208;44.634;10.492;2023-03-12T10:38:17;9.00;;;2.35;;
60368;SDS011;46208;44.634;10.492;2023-03-12T10:41:24;10.45;;;3.67;;
60368;SDS011;46208;44.634;10.492;2023-03-12T10:44:27;3.92;;;2.65;;
60368;SDS011;46208;44.634;10.492;2023-03-12T10:47:43;5.68;;;2.63;;
60368;SDS011;46208;44.634;10.492;2023-03-12T10:51:01;5.28;;;2.38;;
60368;SDS011;46208;44.634;10.492;2023-03-12T10:54:11;13.27;;;3.47;;
60368;SDS011;46208;44.634;10.492;2023-03-12T10:57:23;4.88;;;3.75;;
60368;SDS011;46208;44.634;10.492;2023-03-12T11:00:40;6.63;;;3.60;;
60368;SDS011;46208;44.634;10.492;2023-03-12T11:04:13;6.22;;;5.00;;
60368;SDS011;46208;44.634;10.492;2023-03-12T11:07:18;10.07;;;5.82;;
60368;SDS011;46208;44.634;10.492;2023-03-12T11:10:36;5.55;;;4.55;;
60368;SDS011;46208;44.634;10.492;2023-03-12T11:13:40;10.18;;;4.72;;
60368;SDS011;46208;44.634;10.492;2023-03-12T11:16:44;8.35;;;5.50;;
60368;SDS011;46208;44.634;10.492;2023-03-12T11:19:47;8.52;;;4.00;;
60368;SDS011;46208;44.634;10.492;2023-03-12T11:22:51;8.43;;;5.13;;
60368;SDS011;46208;44.634;10.492;2023-03-12T11:26:02;11.88;;;5.95;;
60368;SDS011;46208;44.634;10.492;2023-03-12T11:29:11;10.57;;;6.00;;
60368;SDS011;46208;44.634;10.492;2023-03-12T11:35:21;16.63;;;6.32;;
60368;SDS011;46208;44.634;10.492;2023-03-12T11:39:01;10.75;;;5.97;;
60368;SDS011;46208;44.634;10.492;2023-03-12T11:45:15;10.13;;;4.93;;
60368;SDS011;46208;44.634;10.492;2023-03-12T11:51:28;5.05;;;4.38;;
60368;SDS011;46208;44.634;10.492;2023-03-12T11:54:41;9.60;;;4.65;;
60368;SDS011;46208;44.634;10.492;2023-03-12T12:04:18;7.50;;;5.38;;
60368;SDS011;46208;44.634;10.492;2023-03-12T12:10:52;11.63;;;5.05;;
60368;SDS011;46208;44.634;10.492;2023-03-12T12:14:25;10.93;;;5.85;;
60368;SDS011;46208;44.634;10.492;2023-03-12T12:30:13;10.82;;;6.15;;
60368;SDS011;46208;44.634;10.492;2023-03-12T12:37:11;10.27;;;5.65;;
60368;SDS011;46208;44.634;10.492;2023-03-12T12:46:35;8.32;;;5.35;;
60368;SDS011;46208;44.634;10.492;2023-03-12T12:49:44;13.85;;;4.80;;
60368;SDS011;46208;44.634;10.492;2023-03-12T12:52:51;9.18;;;5.25;;
60368;SDS011;46208;44.634;10.492;2023-03-12T12:56:01;10.05;;;3.80;;
60368;SDS011;46208;44.634;10.492;2023-03-12T13:02:24;6.03;;;4.43;;
60368;SDS011;46208;44.634;10.492;2023-03-12T13:11:44;6.30;;;3.67;;
60368;SDS011;46208;44.634;10.492;2023-03-12T13:14:49;6.30;;;3.55;;
60368;SDS011;46208;44.634;10.492;2023-03-12T13:20:59;5.22;;;3.47;;
60368;SDS011;46208;44.634;10.492;2023-03-12T13:24:52;6.43;;;4.70;;
60368;SDS011;46208;44.634;10.492;2023-03-12T13:27:37;10.52;;;4.78;;
60368;SDS011;46208;44.634;10.492;2023-03-12T13:30:45;8.70;;;4.20;;
60368;SDS011;46208;44.634;10.492;2023-03-12T13:33:49;8.00;;;3.92;;
60368;SDS011;46208;44.634;10.492;2023-03-12T13:36:57;5.70;;;3.92;;
60368;SDS011;46208;44.634;10.492;2023-03-12T13:40:01;11.20;;;3.63;;
60368;SDS011;46208;44.634;10.492;2023-03-12T13:43:15;6.60;;;4.13;;
60368;SDS011;46208;44.634;10.492;2023-03-12T13:52:47;10.20;;;3.75;;
60368;SDS011;46208;44.634;10.492;2023-03-12T13:56:00;4.78;;;3.22;;
60368;SDS011;46208;44.634;10.492;2023-03-12T13:59:05;6.57;;;3.80;;
60368;SDS011;46208;44.634;10.492;2023-03-12T14:02:14;3.95;;;3.22;;
60368;SDS011;46208;44.634;10.492;2023-03-12T14:05:19;7.45;;;4.20;;
60368;SDS011;46208;44.634;10.492;2023-03-12T14:08:37;5.80;;;2.85;;
60368;SDS011;46208;44.634;10.492;2023-03-12T14:14:57;4.93;;;3.20;;
60368;SDS011;46208;44.634;10.492;2023-03-12T14:18:12;7.05;;;3.22;;
60368;SDS011;46208;44.634;10.492;2023-03-12T14:21:17;7.95;;;2.72;;
60368;SDS011;46208;44.634;10.492;2023-03-12T14:24:23;5.70;;;2.85;;
60368;SDS011;46208;44.634;10.492;2023-03-12T14:27:28;7.97;;;3.70;;
60368;SDS011;46208;44.634;10.492;2023-03-12T14:34:04;3.53;;;2.78;;
60368;SDS011;46208;44.634;10.492;2023-03-12T14:40:28;5.68;;;2.45;;
60368;SDS011;46208;44.634;10.492;2023-03-12T14:43:36;3.17;;;2.35;;
60368;SDS011;46208;44.634;10.492;2023-03-12T14:46:44;4.15;;;2.70;;
60368;SDS011;46208;44.634;10.492;2023-03-12T14:49:48;6.63;;;2.65;;
60368;SDS011;46208;44.634;10.492;2023-03-12T14:52:51;6.15;;;4.45;;
60368;SDS011;46208;44.634;10.492;2023-03-12T14:59:20;2.83;;;2.55;;
60368;SDS011;46208;44.634;10.492;2023-03-12T15:02:25;5.00;;;2.83;;
60368;SDS011;46208;44.634;10.492;2023-03-12T15:05:29;6.20;;;3.10;;
60368;SDS011;46208;44.634;10.492;2023-03-12T15:08:33;6.22;;;2.88;;
60368;SDS011;46208;44.634;10.492;2023-03-12T15:11:41;7.80;;;3.35;;
60368;SDS011;46208;44.634;10.492;2023-03-12T15:14:45;3.25;;;2.85;;
60368;SDS011;46208;44.634;10.492;2023-03-12T15:17:49;7.70;;;3.08;;
60368;SDS011;46208;44.634;10.492;2023-03-12T15:20:54;4.72;;;2.97;;
60368;SDS011;46208;44.634;10.492;2023-03-12T15:23:58;7.30;;;3.25;;
60368;SDS011;46208;44.634;10.492;2023-03-12T15:30:24;3.92;;;2.40;;
60368;SDS011;46208;44.634;10.492;2023-03-12T15:33:28;3.05;;;1.98;;
60368;SDS011;46208;44.634;10.492;2023-03-12T15:36:34;9.70;;;2.85;;
60368;SDS011;46208;44.634;10.492;2023-03-12T15:39:38;5.30;;;2.88;;
60368;SDS011;46208;44.634;10.492;2023-03-12T15:42:42;7.60;;;2.58;;
60368;SDS011;46208;44.634;10.492;2023-03-12T15:45:54;3.53;;;2.00;;
60368;SDS011;46208;44.634;10.492;2023-03-12T15:48:58;5.93;;;2.78;;
60368;SDS011;46208;44.634;10.492;2023-03-12T16:01:42;4.78;;;2.05;;
60368;SDS011;46208;44.634;10.492;2023-03-12T16:04:46;3.30;;;1.92;;
60368;SDS011;46208;44.634;10.492;2023-03-12T16:07:49;7.93;;;2.45;;
60368;SDS011;46208;44.634;10.492;2023-03-12T16:10:53;3.83;;;2.65;;
60368;SDS011;46208;44.634;10.492;2023-03-12T16:17:03;2.53;;;2.00;;
60368;SDS011;46208;44.634;10.492;2023-03-12T16:20:08;4.82;;;2.05;;
60368;SDS011;46208;44.634;10.492;2023-03-12T16:23:13;2.88;;;2.58;;
60368;SDS011;46208;44.634;10.492;2023-03-12T16:26:16;2.38;;;2.17;;
60368;SDS011;46208;44.634;10.492;2023-03-12T16:29:20;6.70;;;2.17;;
60368;SDS011;46208;44.634;10.492;2023-03-12T16:32:23;4.25;;;2.13;;
60368;SDS011;46208;44.634;10.492;2023-03-12T16:35:27;7.25;;;2.10;;
60368;SDS011;46208;44.634;10.492;2023-03-12T16:38:31;5.57;;;1.73;;
60368;SDS011;46208;44.634;10.492;2023-03-12T16:41:34;5.57;;;2.85;;
60368;SDS011;46208;44.634;10.492;2023-03-12T16:44:38;3.38;;;2.28;;
60368;SDS011;46208;44.634;10.492;2023-03-12T16:47:42;2.75;;;2.30;;
60368;SDS011;46208;44.634;10.492;2023-03-12T16:50:48;3.72;;;2.38;;
60368;SDS011;46208;44.634;10.492;2023-03-12T16:53:51;3.00;;;2.00;;
60368;SDS011;46208;44.634;10.492;2023-03-12T16:56:54;5.20;;;1.98;;
60368;SDS011;46208;44.634;10.492;2023-03-12T16:59:58;2.88;;;1.25;;
60368;SDS011;46208;44.634;10.492;2023-03-12T17:03:02;1.98;;;1.58;;
60368;SDS011;46208;44.634;10.492;2023-03-12T17:06:12;2.83;;;1.70;;
60368;SDS011;46208;44.634;10.492;2023-03-12T17:09:17;4.78;;;2.22;;
60368;SDS011;46208;44.634;10.492;2023-03-12T17:12:31;2.08;;;1.88;;
60368;SDS011;46208;44.634;10.492;2023-03-12T17:15:35;4.03;;;1.98;;
60368;SDS011;46208;44.634;10.492;2023-03-12T17:18:39;1.95;;;1.23;;
60368;SDS011;46208;44.634;10.492;2023-03-12T17:21:42;3.25;;;1.33;;
60368;SDS011;46208;44.634;10.492;2023-03-12T17:24:46;2.70;;;1.33;;
60368;SDS011;46208;44.634;10.492;2023-03-12T17:27:49;1.55;;;1.45;;
60368;SDS011;46208;44.634;10.492;2023-03-12T17:30:53;3.65;;;1.23;;
60368;SDS011;46208;44.634;10.492;2023-03-12T17:33:57;1.85;;;1.33;;
60368;SDS011;46208;44.634;10.492;2023-03-12T17:37:01;2.10;;;1.52;;
60368;SDS011;46208;44.634;10.492;2023-03-12T17:40:05;4.53;;;1.85;;
60368;SDS011;46208;44.634;10.492;2023-03-12T17:43:11;3.40;;;1.60;;
60368;SDS011;46208;44.634;10.492;2023-03-12T17:46:14;1.83;;;1.23;;
60368;SDS011;46208;44.634;10.492;2023-03-12T17:49:18;4.10;;;1.83;;
60368;SDS011;46208;44.634;10.492;2023-03-12T17:52:21;7.95;;;1.02;;
60368;SDS011;46208;44.634;10.492;2023-03-12T17:55:25;2.70;;;1.55;;
60368;SDS011;46208;44.634;10.492;2023-03-12T17:58:28;2.85;;;1.17;;
60368;SDS011;46208;44.634;10.492;2023-03-12T18:01:31;3.70;;;1.30;;
60368;SDS011;46208;44.634;10.492;2023-03-12T18:04:35;10.30;;;1.58;;
60368;SDS011;46208;44.634;10.492;2023-03-12T18:07:38;2.60;;;1.50;;
60368;SDS011;46208;44.634;10.492;2023-03-12T18:10:41;4.07;;;1.42;;
60368;SDS011;46208;44.634;10.492;2023-03-12T18:13:48;1.90;;;1.38;;
60368;SDS011;46208;44.634;10.492;2023-03-12T18:16:51;2.03;;;1.58;;
60368;SDS011;46208;44.634;10.492;2023-03-12T18:19:54;0.90;;;0.90;;
60368;SDS011;46208;44.634;10.492;2023-03-12T18:22:58;4.30;;;1.75;;
60368;SDS011;46208;44.634;10.492;2023-03-12T18:26:02;3.17;;;1.77;;
60368;SDS011;46208;44.634;10.492;2023-03-12T18:29:06;2.38;;;1.08;;
60368;SDS011;46208;44.634;10.492;2023-03-12T18:32:10;6.32;;;1.67;;
60368;SDS011;46208;44.634;10.492;2023-03-12T18:35:13;5.72;;;1.50;;
60368;SDS011;46208;44.634;10.492;2023-03-12T18:38:17;2.05;;;1.45;;
60368;SDS011;46208;44.634;10.492;2023-03-12T18:41:20;6.13;;;3.08;;
60368;SDS011;46208;44.634;10.492;2023-03-12T18:44:25;4.15;;;2.53;;
60368;SDS011;46208;44.634;10.492;2023-03-12T18:47:28;5.15;;;1.75;;
60368;SDS011;46208;44.634;10.492;2023-03-12T18:50:33;1.38;;;1.23;;
60368;SDS011;46208;44.634;10.492;2023-03-12T18:53:37;4.97;;;2.50;;
60368;SDS011;46208;44.634;10.492;2023-03-12T18:56:40;1.90;;;1.60;;
60368;SDS011;46208;44.634;10.492;2023-03-12T18:59:44;1.35;;;1.25;;
60368;SDS011;46208;44.634;10.492;2023-03-12T19:02:49;1.42;;;1.33;;
60368;SDS011;46208;44.634;10.492;2023-03-12T19:06:03;2.95;;;1.60;;
60368;SDS011;46208;44.634;10.492;2023-03-12T19:09:06;2.88;;;1.27;;
60368;SDS011;46208;44.634;10.492;2023-03-12T19:12:11;1.67;;;1.45;;
60368;SDS011;46208;44.634;10.492;2023-03-12T19:15:15;1.67;;;1.15;;
60368;SDS011;46208;44.634;10.492;2023-03-12T19:18:19;3.10;;;1.60;;
60368;SDS011;46208;44.634;10.492;2023-03-12T19:21:23;2.35;;;2.15;;
60368;SDS011;46208;44.634;10.492;2023-03-12T19:24:26;2.30;;;1.25;;
60368;SDS011;46208;44.634;10.492;2023-03-12T19:27:30;8.98;;;3.05;;
60368;SDS011;46208;44.634;10.492;2023-03-12T19:30:34;2.55;;;1.55;;
60368;SDS011;46208;44.634;10.492;2023-03-12T19:33:37;1.48;;;1.00;;
60368;SDS011;46208;44.634;10.492;2023-03-12T19:36:41;2.03;;;1.63;;
60368;SDS011;46208;44.634;10.492;2023-03-12T19:39:45;12.95;;;6.60;;
60368;SDS011;46208;44.634;10.492;2023-03-12T19:42:48;29.05;;;11.48;;
60368;SDS011;46208;44.634;10.492;2023-03-12T19:45:52;3.38;;;1.83;;
60368;SDS011;46208;44.634;10.492;2023-03-12T19:48:57;1.52;;;1.00;;
60368;SDS011;46208;44.634;10.492;2023-03-12T19:52:01;1.52;;;1.27;;
60368;SDS011;46208;44.634;10.492;2023-03-12T19:55:05;1.88;;;1.00;;
60368;SDS011;46208;44.634;10.492;2023-03-12T19:58:08;1.63;;;1.35;;
60368;SDS011;46208;44.634;10.492;2023-03-12T20:01:11;2.40;;;1.55;;
60368;SDS011;46208;44.634;10.492;2023-03-12T20:04:15;3.30;;;1.15;;
60368;SDS011;46208;44.634;10.492;2023-03-12T20:07:18;1.42;;;1.10;;
60368;SDS011;46208;44.634;10.492;2023-03-12T20:10:22;1.73;;;1.35;;
60368;SDS011;46208;44.634;10.492;2023-03-12T20:13:25;2.30;;;1.67;;
60368;SDS011;46208;44.634;10.492;2023-03-12T20:16:28;2.63;;;1.10;;